Aviation Digital Data Service (ADDS)

Output produced by METARs form (1538 UTC 20 March 2019)
found at http://www.aviationweather.gov/metar/data/
 
METAR text: VIAR 201530Z 00000KT 4500 HZ NSC 18/09 Q1013 NOSIG
Conditions at: VIAR (AMRITSAR , IN) observed 1530 UTC 20 March 2019
Temperature: 18.0°C (64°F)
Dewpoint: 9.0°C (48°F) [RH = 56%]
Pressure (altimeter): 29.91 inches Hg (1013.0 mb)
Winds: calm
Visibility: 2.80 miles (4.51 km)
Ceiling: at least 12,000 feet AGL
Clouds: sky clear below 12,000 feet AGL
Weather: HZ  (haze)

METAR text: VIAR 201500Z 33006KT 4500 HZ NSC 18/09 Q1013 NOSIG
Conditions at: VIAR (AMRITSAR , IN) observed 1500 UTC 20 March 2019
Temperature: 18.0°C (64°F)
Dewpoint: 9.0°C (48°F) [RH = 56%]
Pressure (altimeter): 29.91 inches Hg (1013.0 mb)
Winds: from the NNW (330 degrees) at 7 MPH (6 knots; 3.1 m/s)
Visibility: 2.80 miles (4.51 km)
Ceiling: at least 12,000 feet AGL
Clouds: sky clear below 12,000 feet AGL
Weather: HZ  (haze)

METAR text: VIAR 201430Z 32006KT 4500 HZ NSC 18/09 Q1012 NOSIG
Conditions at: VIAR (AMRITSAR , IN) observed 1430 UTC 20 March 2019
Temperature: 18.0°C (64°F)
Dewpoint: 9.0°C (48°F) [RH = 56%]
Pressure (altimeter): 29.88 inches Hg (1012.0 mb)
Winds: from the NW (320 degrees) at 7 MPH (6 knots; 3.1 m/s)
Visibility: 2.80 miles (4.51 km)
Ceiling: at least 12,000 feet AGL
Clouds: sky clear below 12,000 feet AGL
Weather: HZ  (haze)

METAR text: VIAR 201400Z 30007KT 4500 HZ NSC 19/08 Q1012 NOSIG
Conditions at: VIAR (AMRITSAR , IN) observed 1400 UTC 20 March 2019
Temperature: 19.0°C (66°F)
Dewpoint: 8.0°C (46°F) [RH = 49%]
Pressure (altimeter): 29.88 inches Hg (1012.0 mb)
Winds: from the WNW (300 degrees) at 8 MPH (7 knots; 3.6 m/s)
Visibility: 2.80 miles (4.51 km)
Ceiling: at least 12,000 feet AGL
Clouds: sky clear below 12,000 feet AGL
Weather: HZ  (haze)

METAR text: VIAR 201330Z 30006KT 5000 HZ NSC 19/08 Q1012 NOSIG
Conditions at: VIAR (AMRITSAR , IN) observed 1330 UTC 20 March 2019
Temperature: 19.0°C (66°F)
Dewpoint: 8.0°C (46°F) [RH = 49%]
Pressure (altimeter): 29.88 inches Hg (1012.0 mb)
Winds: from the WNW (300 degrees) at 7 MPH (6 knots; 3.1 m/s)
Visibility: 3 miles ( 5 km)
Ceiling: at least 12,000 feet AGL
Clouds: sky clear below 12,000 feet AGL
Weather: HZ  (haze)

METAR text: VIAR 201300Z 30006KT 5000 FEW040 21/08 Q1011 NOSIG
Conditions at: VIAR (AMRITSAR , IN) observed 1300 UTC 20 March 2019
Temperature: 21.0°C (70°F)
Dewpoint: 8.0°C (46°F) [RH = 43%]
Pressure (altimeter): 29.85 inches Hg (1011.0 mb)
Winds: from the WNW (300 degrees) at 7 MPH (6 knots; 3.1 m/s)
Visibility: 3 miles ( 5 km)
Ceiling: at least 12,000 feet AGL
Clouds: few clouds at 4000 feet AGL
Weather: no significant weather observed at this time

METAR text: VIAR 201230Z 30007KT 5000 HZ FEW040 23/07 Q1011 NOSIG
Conditions at: VIAR (AMRITSAR , IN) observed 1230 UTC 20 March 2019
Temperature: 23.0°C (73°F)
Dewpoint: 7.0°C (45°F) [RH = 36%]
Pressure (altimeter): 29.85 inches Hg (1011.0 mb)
Winds: from the WNW (300 degrees) at 8 MPH (7 knots; 3.6 m/s)
Visibility: 3 miles ( 5 km)
Ceiling: at least 12,000 feet AGL
Clouds: few clouds at 4000 feet AGL
Weather: HZ  (haze)

METAR text: VIAR 201200Z 30007KT 5000 HZ FEW040 24/07 Q1011 NOSIG
Conditions at: VIAR (AMRITSAR , IN) observed 1200 UTC 20 March 2019
Temperature: 24.0°C (75°F)
Dewpoint: 7.0°C (45°F) [RH = 34%]
Pressure (altimeter): 29.85 inches Hg (1011.0 mb)
Winds: from the WNW (300 degrees) at 8 MPH (7 knots; 3.6 m/s)
Visibility: 3 miles ( 5 km)
Ceiling: at least 12,000 feet AGL
Clouds: few clouds at 4000 feet AGL
Weather: HZ  (haze)

METAR text: VIAR 201130Z 30007KT 6000 FEW040 24/07 Q1011 NOSIG
Conditions at: VIAR (AMRITSAR , IN) observed 1130 UTC 20 March 2019
Temperature: 24.0°C (75°F)
Dewpoint: 7.0°C (45°F) [RH = 34%]
Pressure (altimeter): 29.85 inches Hg (1011.0 mb)
Winds: from the WNW (300 degrees) at 8 MPH (7 knots; 3.6 m/s)
Visibility: 4 miles ( 6 km)
Ceiling: at least 12,000 feet AGL
Clouds: few clouds at 4000 feet AGL
Weather: no significant weather observed at this time

METAR text: VIAR 201100Z 31005KT 6000 FEW040 24/07 Q1011 NOSIG
Conditions at: VIAR (AMRITSAR , IN) observed 1100 UTC 20 March 2019
Temperature: 24.0°C (75°F)
Dewpoint: 7.0°C (45°F) [RH = 34%]
Pressure (altimeter): 29.85 inches Hg (1011.0 mb)
Winds: from the NW (310 degrees) at 6 MPH (5 knots; 2.6 m/s)
Visibility: 4 miles ( 6 km)
Ceiling: at least 12,000 feet AGL
Clouds: few clouds at 4000 feet AGL
Weather: no significant weather observed at this time

METAR text: VIAR 201030Z 30006KT 7000 FEW040 25/07 Q1011 NOSIG
Conditions at: VIAR (AMRITSAR , IN) observed 1030 UTC 20 March 2019
Temperature: 25.0°C (77°F)
Dewpoint: 7.0°C (45°F) [RH = 32%]
Pressure (altimeter): 29.85 inches Hg (1011.0 mb)
Winds: from the WNW (300 degrees) at 7 MPH (6 knots; 3.1 m/s)
Visibility: 4 miles ( 7 km)
Ceiling: at least 12,000 feet AGL
Clouds: few clouds at 4000 feet AGL
Weather: no significant weather observed at this time

METAR text: VIAR 200930Z VRB03KT 7000 FEW040 25/07 Q1011 NOSIG
Conditions at: VIAR (AMRITSAR , IN) observed 0930 UTC 20 March 2019
Temperature: 25.0°C (77°F)
Dewpoint: 7.0°C (45°F) [RH = 32%]
Pressure (altimeter): 29.85 inches Hg (1011.0 mb)
Winds: variable direction winds at 3 MPH (3 knots; 1.5 m/s)
Visibility: 4 miles ( 7 km)
Ceiling: at least 12,000 feet AGL
Clouds: few clouds at 4000 feet AGL
Weather: no significant weather observed at this time

METAR text: VIAR 200730Z 03008KT 7000 FEW040 23/11 Q1012 NOSIG
Conditions at: VIAR (AMRITSAR , IN) observed 0730 UTC 20 March 2019
Temperature: 23.0°C (73°F)
Dewpoint: 11.0°C (52°F) [RH = 47%]
Pressure (altimeter): 29.88 inches Hg (1012.0 mb)
Winds: from the NNE (30 degrees) at 9 MPH (8 knots; 4.1 m/s)
Visibility: 4 miles ( 7 km)
Ceiling: at least 12,000 feet AGL
Clouds: few clouds at 4000 feet AGL
Weather: no significant weather observed at this time

METAR text: VIAR 200700Z 03009KT 6000 FEW040 22/12 Q1012 NOSIG
Conditions at: VIAR (AMRITSAR , IN) observed 0700 UTC 20 March 2019
Temperature: 22.0°C (72°F)
Dewpoint: 12.0°C (54°F) [RH = 53%]
Pressure (altimeter): 29.88 inches Hg (1012.0 mb)
Winds: from the NNE (30 degrees) at 10 MPH (9 knots; 4.6 m/s)
Visibility: 4 miles ( 6 km)
Ceiling: at least 12,000 feet AGL
Clouds: few clouds at 4000 feet AGL
Weather: no significant weather observed at this time

METAR text: VIAR 200630Z VRB08KT 6000 FEW040 21/11 Q1012 NOSIG
Conditions at: VIAR (AMRITSAR , IN) observed 0630 UTC 20 March 2019
Temperature: 21.0°C (70°F)
Dewpoint: 11.0°C (52°F) [RH = 53%]
Pressure (altimeter): 29.88 inches Hg (1012.0 mb)
Winds: variable direction winds at 9 MPH (8 knots; 4.1 m/s)
Visibility: 4 miles ( 6 km)
Ceiling: at least 12,000 feet AGL
Clouds: few clouds at 4000 feet AGL
Weather: no significant weather observed at this time

METAR text: VIAR 200600Z 03010KT 6000 FEW040 21/11 Q1012 NOSIG
Conditions at: VIAR (AMRITSAR , IN) observed 0600 UTC 20 March 2019
Temperature: 21.0°C (70°F)
Dewpoint: 11.0°C (52°F) [RH = 53%]
Pressure (altimeter): 29.88 inches Hg (1012.0 mb)
Winds: from the NNE (30 degrees) at 12 MPH (10 knots; 5.1 m/s)
Visibility: 4 miles ( 6 km)
Ceiling: at least 12,000 feet AGL
Clouds: few clouds at 4000 feet AGL
Weather: no significant weather observed at this time

METAR text: VIAR 200530Z 03011KT 6000 FEW040 20/11 Q1012 NOSIG
Conditions at: VIAR (AMRITSAR , IN) observed 0530 UTC 20 March 2019
Temperature: 20.0°C (68°F)
Dewpoint: 11.0°C (52°F) [RH = 56%]
Pressure (altimeter): 29.88 inches Hg (1012.0 mb)
Winds: from the NNE (30 degrees) at 13 MPH (11 knots; 5.7 m/s)
Visibility: 4 miles ( 6 km)
Ceiling: at least 12,000 feet AGL
Clouds: few clouds at 4000 feet AGL
Weather: no significant weather observed at this time

METAR text: VIAR 200500Z 04012KT 6000 SCT035 SCT100 18/11 Q1012 NOSIG
Conditions at: VIAR (AMRITSAR , IN) observed 0500 UTC 20 March 2019
Temperature: 18.0°C (64°F)
Dewpoint: 11.0°C (52°F) [RH = 64%]
Pressure (altimeter): 29.88 inches Hg (1012.0 mb)
Winds: from the NE (40 degrees) at 14 MPH (12 knots; 6.2 m/s)
Visibility: 4 miles ( 6 km)
Ceiling: at least 12,000 feet AGL
Clouds: scattered clouds at 3500 feet AGL
scattered clouds at 10000 feet AGL
Weather: no significant weather observed at this time

METAR text: VIAR 200430Z 29012KT 6000 SCT035 BKN100 17/13 Q1013 NOSIG
Conditions at: VIAR (AMRITSAR , IN) observed 0430 UTC 20 March 2019
Temperature: 17.0°C (63°F)
Dewpoint: 13.0°C (55°F) [RH = 77%]
Pressure (altimeter): 29.91 inches Hg (1013.0 mb)
Winds: from the WNW (290 degrees) at 14 MPH (12 knots; 6.2 m/s)
Visibility: 4 miles ( 6 km)
Ceiling: 10000 feet AGL
Clouds: scattered clouds at 3500 feet AGL
broken clouds at 10000 feet AGL
Weather: no significant weather observed at this time

METAR text: VIAR 200400Z 12012KT 6000 BR SCT035 BKN100 17/13 Q1013 NOSIG
Conditions at: VIAR (AMRITSAR , IN) observed 0400 UTC 20 March 2019
Temperature: 17.0°C (63°F)
Dewpoint: 13.0°C (55°F) [RH = 77%]
Pressure (altimeter): 29.91 inches Hg (1013.0 mb)
Winds: from the ESE (120 degrees) at 14 MPH (12 knots; 6.2 m/s)
Visibility: 4 miles ( 6 km)
Ceiling: 10000 feet AGL
Clouds: scattered clouds at 3500 feet AGL
broken clouds at 10000 feet AGL
Weather: BR  (mist)

METAR text: VIAR 200330Z 01004KT 5000 BR SCT035 BKN100 16/12 Q1013 NOSIG
Conditions at: VIAR (AMRITSAR , IN) observed 0330 UTC 20 March 2019
Temperature: 16.0°C (61°F)
Dewpoint: 12.0°C (54°F) [RH = 77%]
Pressure (altimeter): 29.91 inches Hg (1013.0 mb)
Winds: from the N (10 degrees) at 5 MPH (4 knots; 2.1 m/s)
Visibility: 3 miles ( 5 km)
Ceiling: 10000 feet AGL
Clouds: scattered clouds at 3500 feet AGL
broken clouds at 10000 feet AGL
Weather: BR  (mist)

METAR text: VIAR 200300Z 30010KT 5000 BR SCT035 BKN100 16/12 Q1012 NOSIG
Conditions at: VIAR (AMRITSAR , IN) observed 0300 UTC 20 March 2019
Temperature: 16.0°C (61°F)
Dewpoint: 12.0°C (54°F) [RH = 77%]
Pressure (altimeter): 29.88 inches Hg (1012.0 mb)
Winds: from the WNW (300 degrees) at 12 MPH (10 knots; 5.1 m/s)
Visibility: 3 miles ( 5 km)
Ceiling: 10000 feet AGL
Clouds: scattered clouds at 3500 feet AGL
broken clouds at 10000 feet AGL
Weather: BR  (mist)

METAR text: VIAR 200230Z 33010KT 5000 BR SCT035 BKN100 15/11 Q1011 NOSIG
Conditions at: VIAR (AMRITSAR , IN) observed 0230 UTC 20 March 2019
Temperature: 15.0°C (59°F)
Dewpoint: 11.0°C (52°F) [RH = 77%]
Pressure (altimeter): 29.85 inches Hg (1011.0 mb)
Winds: from the NNW (330 degrees) at 12 MPH (10 knots; 5.1 m/s)
Visibility: 3 miles ( 5 km)
Ceiling: 10000 feet AGL
Clouds: scattered clouds at 3500 feet AGL
broken clouds at 10000 feet AGL
Weather: BR  (mist)

METAR text: VIAR 200200Z 34010KT 4500 BR SCT035 BKN100 14/11 Q1011 BECMG 5000
Conditions at: VIAR (AMRITSAR , IN) observed 0200 UTC 20 March 2019
Temperature: 14.0°C (57°F)
Dewpoint: 11.0°C (52°F) [RH = 82%]
Pressure (altimeter): 29.85 inches Hg (1011.0 mb)
Winds: from the NNW (340 degrees) at 12 MPH (10 knots; 5.1 m/s)
Visibility: 2.80 miles (4.51 km)
Ceiling: 10000 feet AGL
Clouds: scattered clouds at 3500 feet AGL
broken clouds at 10000 feet AGL
Weather: BR  (mist)

METAR text: VIAR 200130Z 34012KT 4000 BR SCT035 FEW040CB BKN100 15/12 Q1011 NOSIG
Conditions at: VIAR (AMRITSAR , IN) observed 0130 UTC 20 March 2019
Temperature: 15.0°C (59°F)
Dewpoint: 12.0°C (54°F) [RH = 82%]
Pressure (altimeter): 29.85 inches Hg (1011.0 mb)
Winds: from the NNW (340 degrees) at 14 MPH (12 knots; 6.2 m/s)
Visibility: 2.49 miles (4.01 km)
Ceiling: 10000 feet AGL
Clouds: scattered clouds at 3500 feet AGL
few clouds at 4000 feet AGL
broken clouds at 10000 feet AGL
Weather: BR  (mist)

METAR text: VIAR 200100Z 33014KT 4000 BR SCT035 FEW040CB BKN100 14/12 Q1011 NOSIG
Conditions at: VIAR (AMRITSAR , IN) observed 0100 UTC 20 March 2019
Temperature: 14.0°C (57°F)
Dewpoint: 12.0°C (54°F) [RH = 88%]
Pressure (altimeter): 29.85 inches Hg (1011.0 mb)
Winds: from the NNW (330 degrees) at 16 MPH (14 knots; 7.2 m/s)
Visibility: 2.49 miles (4.01 km)
Ceiling: 10000 feet AGL
Clouds: scattered clouds at 3500 feet AGL
few clouds at 4000 feet AGL
broken clouds at 10000 feet AGL
Weather: BR  (mist)

METAR text: VIAR 200030Z 30013KT 4000 BR SCT035 FEW040CB BKN100 14/12 Q1011 NOSIG
Conditions at: VIAR (AMRITSAR , IN) observed 0030 UTC 20 March 2019
Temperature: 14.0°C (57°F)
Dewpoint: 12.0°C (54°F) [RH = 88%]
Pressure (altimeter): 29.85 inches Hg (1011.0 mb)
Winds: from the WNW (300 degrees) at 15 MPH (13 knots; 6.7 m/s)
Visibility: 2.49 miles (4.01 km)
Ceiling: 10000 feet AGL
Clouds: scattered clouds at 3500 feet AGL
few clouds at 4000 feet AGL
broken clouds at 10000 feet AGL
Weather: BR  (mist)

METAR text: VIAR 200000Z 19015KT 4000 BR SCT035 FEW040CB BKN100 15/12 Q1011 NOSIG
Conditions at: VIAR (AMRITSAR , IN) observed 0000 UTC 20 March 2019
Temperature: 15.0°C (59°F)
Dewpoint: 12.0°C (54°F) [RH = 82%]
Pressure (altimeter): 29.85 inches Hg (1011.0 mb)
Winds: from the S (190 degrees) at 17 MPH (15 knots; 7.7 m/s)
Visibility: 2.49 miles (4.01 km)
Ceiling: 10000 feet AGL
Clouds: scattered clouds at 3500 feet AGL
few clouds at 4000 feet AGL
broken clouds at 10000 feet AGL
Weather: BR  (mist)

METAR text: VIAR 192330Z 33013KT 240V340 4000 -TSRA SCT035 FEW040CB OVC100 15/12 Q1011 NOSIG
Conditions at: VIAR (AMRITSAR , IN) observed 2330 UTC 19 March 2019
Temperature: 15.0°C (59°F)
Dewpoint: 12.0°C (54°F) [RH = 82%]
Pressure (altimeter): 29.85 inches Hg (1011.0 mb)
Winds: from the NNW (330 degrees) at 15 MPH (13 knots; 6.7 m/s)
Visibility: 2.49 miles (4.01 km)
Ceiling: 10000 feet AGL
Clouds: scattered clouds at 3500 feet AGL
few clouds at 4000 feet AGL
overcast cloud deck at 10000 feet AGL
Weather: -TSRA  (light rain associated with thunderstorm(s))

METAR text: VIAR 192300Z 32017KT 230V350 4000 -RA SCT035 FEW040CB OVC100 15/13 Q1011 NOSIG
Conditions at: VIAR (AMRITSAR , IN) observed 2300 UTC 19 March 2019
Temperature: 15.0°C (59°F)
Dewpoint: 13.0°C (55°F) [RH = 88%]
Pressure (altimeter): 29.85 inches Hg (1011.0 mb)
Winds: from the NW (320 degrees) at 20 MPH (17 knots; 8.7 m/s)
Visibility: 2.49 miles (4.01 km)
Ceiling: 10000 feet AGL
Clouds: scattered clouds at 3500 feet AGL
few clouds at 4000 feet AGL
overcast cloud deck at 10000 feet AGL
Weather: -RA  (light rain)

METAR text: VIAR 192230Z 36013KT 4000 BR SCT035 FEW040CB OVC100 16/13 Q1009 NOSIG
Conditions at: VIAR (AMRITSAR , IN) observed 2230 UTC 19 March 2019
Temperature: 16.0°C (61°F)
Dewpoint: 13.0°C (55°F) [RH = 82%]
Pressure (altimeter): 29.79 inches Hg (1009.0 mb)
Winds: from the N (360 degrees) at 15 MPH (13 knots; 6.7 m/s)
Visibility: 2.49 miles (4.01 km)
Ceiling: 10000 feet AGL
Clouds: scattered clouds at 3500 feet AGL
few clouds at 4000 feet AGL
overcast cloud deck at 10000 feet AGL
Weather: BR  (mist)

METAR text: VIAR 192200Z VRB14KT 4500 RA SCT035 FEW040CB OVC100 16/13 Q1009 NOSIG
Conditions at: VIAR (AMRITSAR , IN) observed 2200 UTC 19 March 2019
Temperature: 16.0°C (61°F)
Dewpoint: 13.0°C (55°F) [RH = 82%]
Pressure (altimeter): 29.79 inches Hg (1009.0 mb)
Winds: variable direction winds at 16 MPH (14 knots; 7.2 m/s)
Visibility: 2.80 miles (4.51 km)
Ceiling: 10000 feet AGL
Clouds: scattered clouds at 3500 feet AGL
few clouds at 4000 feet AGL
overcast cloud deck at 10000 feet AGL
Weather: RA  (moderate rain)

METAR text: VIAR 192130Z 33018KT 320V020 4500 BR SCT035 FEW040CB BKN100 16/13 Q1010 NOSIG
Conditions at: VIAR (AMRITSAR , IN) observed 2130 UTC 19 March 2019
Temperature: 16.0°C (61°F)
Dewpoint: 13.0°C (55°F) [RH = 82%]
Pressure (altimeter): 29.82 inches Hg (1010.0 mb)
Winds: from the NNW (330 degrees) at 21 MPH (18 knots; 9.3 m/s)
Visibility: 2.80 miles (4.51 km)
Ceiling: 10000 feet AGL
Clouds: scattered clouds at 3500 feet AGL
few clouds at 4000 feet AGL
broken clouds at 10000 feet AGL
Weather: BR  (mist)

METAR text: VIAR 192100Z 32022KT 4500 BR SCT035 FEW040CB BKN100 16/13 Q1010 NOSIG
Conditions at: VIAR (AMRITSAR , IN) observed 2100 UTC 19 March 2019
Temperature: 16.0°C (61°F)
Dewpoint: 13.0°C (55°F) [RH = 82%]
Pressure (altimeter): 29.82 inches Hg (1010.0 mb)
Winds: from the NW (320 degrees) at 25 MPH (22 knots; 11.3 m/s)
Visibility: 2.80 miles (4.51 km)
Ceiling: 10000 feet AGL
Clouds: scattered clouds at 3500 feet AGL
few clouds at 4000 feet AGL
broken clouds at 10000 feet AGL
Weather: BR  (mist)

METAR text: VIAR 192000Z 33005KT 4500 BR SCT035 FEW040CB SCT100 17/14 Q1009 NOSIG
Conditions at: VIAR (AMRITSAR , IN) observed 2000 UTC 19 March 2019
Temperature: 17.0°C (63°F)
Dewpoint: 14.0°C (57°F) [RH = 82%]
Pressure (altimeter): 29.79 inches Hg (1009.0 mb)
Winds: from the NNW (330 degrees) at 6 MPH (5 knots; 2.6 m/s)
Visibility: 2.80 miles (4.51 km)
Ceiling: at least 12,000 feet AGL
Clouds: scattered clouds at 3500 feet AGL
few clouds at 4000 feet AGL
scattered clouds at 10000 feet AGL
Weather: BR  (mist)

METAR text: VIAR 191930Z VRB08KT 4500 BR SCT035 FEW040CB SCT100 19/14 Q1009 NOSIG
Conditions at: VIAR (AMRITSAR , IN) observed 1930 UTC 19 March 2019
Temperature: 19.0°C (66°F)
Dewpoint: 14.0°C (57°F) [RH = 73%]
Pressure (altimeter): 29.79 inches Hg (1009.0 mb)
Winds: variable direction winds at 9 MPH (8 knots; 4.1 m/s)
Visibility: 2.80 miles (4.51 km)
Ceiling: at least 12,000 feet AGL
Clouds: scattered clouds at 3500 feet AGL
few clouds at 4000 feet AGL
scattered clouds at 10000 feet AGL
Weather: BR  (mist)

METAR text: VIAR 191900Z 34006KT 4500 BR SCT035 FEW040CB SCT100 19/13 Q1009 NOSIG
Conditions at: VIAR (AMRITSAR , IN) observed 1900 UTC 19 March 2019
Temperature: 19.0°C (66°F)
Dewpoint: 13.0°C (55°F) [RH = 68%]
Pressure (altimeter): 29.79 inches Hg (1009.0 mb)
Winds: from the NNW (340 degrees) at 7 MPH (6 knots; 3.1 m/s)
Visibility: 2.80 miles (4.51 km)
Ceiling: at least 12,000 feet AGL
Clouds: scattered clouds at 3500 feet AGL
few clouds at 4000 feet AGL
scattered clouds at 10000 feet AGL
Weather: BR  (mist)

METAR text: VIAR 191830Z VRB02KT 4500 -TS SCT035 FEW040CB SCT100 18/14 Q1009 NOSIG
Conditions at: VIAR (AMRITSAR , IN) observed 1830 UTC 19 March 2019
Temperature: 18.0°C (64°F)
Dewpoint: 14.0°C (57°F) [RH = 77%]
Pressure (altimeter): 29.79 inches Hg (1009.0 mb)
Winds: variable direction winds at 2 MPH (2 knots; 1.0 m/s)
Visibility: 2.80 miles (4.51 km)
Ceiling: at least 12,000 feet AGL
Clouds: scattered clouds at 3500 feet AGL
few clouds at 4000 feet AGL
scattered clouds at 10000 feet AGL
Weather: -TS  (unknown weather)

METAR text: VIAR 191800Z 07006KT 4500 BR SCT035 FEW040CB SCT100 18/13 Q1008 NOSIG
Conditions at: VIAR (AMRITSAR , IN) observed 1800 UTC 19 March 2019
Temperature: 18.0°C (64°F)
Dewpoint: 13.0°C (55°F) [RH = 73%]
Pressure (altimeter): 29.76 inches Hg (1008.0 mb)
Winds: from the ENE (70 degrees) at 7 MPH (6 knots; 3.1 m/s)
Visibility: 2.80 miles (4.51 km)
Ceiling: at least 12,000 feet AGL
Clouds: scattered clouds at 3500 feet AGL
few clouds at 4000 feet AGL
scattered clouds at 10000 feet AGL
Weather: BR  (mist)

METAR text: VIAR 191730Z VRB02KT 4500 HZ SCT030 FEW040CB SCT100 19/14 Q1009 NOSIG
Conditions at: VIAR (AMRITSAR , IN) observed 1730 UTC 19 March 2019
Temperature: 19.0°C (66°F)
Dewpoint: 14.0°C (57°F) [RH = 73%]
Pressure (altimeter): 29.79 inches Hg (1009.0 mb)
Winds: variable direction winds at 2 MPH (2 knots; 1.0 m/s)
Visibility: 2.80 miles (4.51 km)
Ceiling: at least 12,000 feet AGL
Clouds: scattered clouds at 3000 feet AGL
few clouds at 4000 feet AGL
scattered clouds at 10000 feet AGL
Weather: HZ  (haze)

METAR text: VIAR 191700Z 05006KT 4500 HZ SCT040 19/14 Q1009 NOSIG
Conditions at: VIAR (AMRITSAR , IN) observed 1700 UTC 19 March 2019
Temperature: 19.0°C (66°F)
Dewpoint: 14.0°C (57°F) [RH = 73%]
Pressure (altimeter): 29.79 inches Hg (1009.0 mb)
Winds: from the NE (50 degrees) at 7 MPH (6 knots; 3.1 m/s)
Visibility: 2.80 miles (4.51 km)
Ceiling: at least 12,000 feet AGL
Clouds: scattered clouds at 4000 feet AGL
Weather: HZ  (haze)

METAR text: VIAR 191630Z 06005KT 4500 HZ SCT040 19/14 Q1009 NOSIG
Conditions at: VIAR (AMRITSAR , IN) observed 1630 UTC 19 March 2019
Temperature: 19.0°C (66°F)
Dewpoint: 14.0°C (57°F) [RH = 73%]
Pressure (altimeter): 29.79 inches Hg (1009.0 mb)
Winds: from the ENE (60 degrees) at 6 MPH (5 knots; 2.6 m/s)
Visibility: 2.80 miles (4.51 km)
Ceiling: at least 12,000 feet AGL
Clouds: scattered clouds at 4000 feet AGL
Weather: HZ  (haze)

METAR text: VIAR 191600Z 05005KT 4500 HZ SCT040 20/13 Q1009 NOSIG
Conditions at: VIAR (AMRITSAR , IN) observed 1600 UTC 19 March 2019
Temperature: 20.0°C (68°F)
Dewpoint: 13.0°C (55°F) [RH = 64%]
Pressure (altimeter): 29.79 inches Hg (1009.0 mb)
Winds: from the NE (50 degrees) at 6 MPH (5 knots; 2.6 m/s)
Visibility: 2.80 miles (4.51 km)
Ceiling: at least 12,000 feet AGL
Clouds: scattered clouds at 4000 feet AGL
Weather: HZ  (haze)

METAR text: VIAR 191530Z 05005KT 4500 HZ SCT040 21/14 Q1009 NOSIG
Conditions at: VIAR (AMRITSAR , IN) observed 1530 UTC 19 March 2019
Temperature: 21.0°C (70°F)
Dewpoint: 14.0°C (57°F) [RH = 64%]
Pressure (altimeter): 29.79 inches Hg (1009.0 mb)
Winds: from the NE (50 degrees) at 6 MPH (5 knots; 2.6 m/s)
Visibility: 2.80 miles (4.51 km)
Ceiling: at least 12,000 feet AGL
Clouds: scattered clouds at 4000 feet AGL
Weather: HZ  (haze)

METAR text: VIAR 191500Z 04004KT 4500 HZ SCT040 22/13 Q1009 NOSIG
Conditions at: VIAR (AMRITSAR , IN) observed 1500 UTC 19 March 2019
Temperature: 22.0°C (72°F)
Dewpoint: 13.0°C (55°F) [RH = 57%]
Pressure (altimeter): 29.79 inches Hg (1009.0 mb)
Winds: from the NE (40 degrees) at 5 MPH (4 knots; 2.1 m/s)
Visibility: 2.80 miles (4.51 km)
Ceiling: at least 12,000 feet AGL
Clouds: scattered clouds at 4000 feet AGL
Weather: HZ  (haze)

METAR text: VIAR 191430Z VRB02KT 4500 HZ SCT040 21/13 Q1009 NOSIG
Conditions at: VIAR (AMRITSAR , IN) observed 1430 UTC 19 March 2019
Temperature: 21.0°C (70°F)
Dewpoint: 13.0°C (55°F) [RH = 60%]
Pressure (altimeter): 29.79 inches Hg (1009.0 mb)
Winds: variable direction winds at 2 MPH (2 knots; 1.0 m/s)
Visibility: 2.80 miles (4.51 km)
Ceiling: at least 12,000 feet AGL
Clouds: scattered clouds at 4000 feet AGL
Weather: HZ  (haze)

METAR text: VIAR 191400Z 00000KT 4500 HZ SCT040 22/13 Q1009 NOSIG
Conditions at: VIAR (AMRITSAR , IN) observed 1400 UTC 19 March 2019
Temperature: 22.0°C (72°F)
Dewpoint: 13.0°C (55°F) [RH = 57%]
Pressure (altimeter): 29.79 inches Hg (1009.0 mb)
Winds: calm
Visibility: 2.80 miles (4.51 km)
Ceiling: at least 12,000 feet AGL
Clouds: scattered clouds at 4000 feet AGL
Weather: HZ  (haze)

METAR text: VIAR 191330Z 04003KT 4500 HZ SCT040 23/12 Q1009 NOSIG
Conditions at: VIAR (AMRITSAR , IN) observed 1330 UTC 19 March 2019
Temperature: 23.0°C (73°F)
Dewpoint: 12.0°C (54°F) [RH = 50%]
Pressure (altimeter): 29.79 inches Hg (1009.0 mb)
Winds: from the NE (40 degrees) at 3 MPH (3 knots; 1.5 m/s)
Visibility: 2.80 miles (4.51 km)
Ceiling: at least 12,000 feet AGL
Clouds: scattered clouds at 4000 feet AGL
Weather: HZ  (haze)

METAR text: VIAR 191300Z 04003KT 4500 HZ FEW040 24/12 Q1009 NOSIG
Conditions at: VIAR (AMRITSAR , IN) observed 1300 UTC 19 March 2019
Temperature: 24.0°C (75°F)
Dewpoint: 12.0°C (54°F) [RH = 47%]
Pressure (altimeter): 29.79 inches Hg (1009.0 mb)
Winds: from the NE (40 degrees) at 3 MPH (3 knots; 1.5 m/s)
Visibility: 2.80 miles (4.51 km)
Ceiling: at least 12,000 feet AGL
Clouds: few clouds at 4000 feet AGL
Weather: HZ  (haze)

METAR text: VIAR 191200Z VRB02KT 4500 HZ FEW040 26/12 Q1009 BECMG 5000
Conditions at: VIAR (AMRITSAR , IN) observed 1200 UTC 19 March 2019
Temperature: 26.0°C (79°F)
Dewpoint: 12.0°C (54°F) [RH = 42%]
Pressure (altimeter): 29.79 inches Hg (1009.0 mb)
Winds: variable direction winds at 2 MPH (2 knots; 1.0 m/s)
Visibility: 2.80 miles (4.51 km)
Ceiling: at least 12,000 feet AGL
Clouds: few clouds at 4000 feet AGL
Weather: HZ  (haze)

METAR text: VIAR 191130Z 31003KT 4500 HZ NSC 26/07 Q1009 BECMG 5000
Conditions at: VIAR (AMRITSAR , IN) observed 1130 UTC 19 March 2019
Temperature: 26.0°C (79°F)
Dewpoint: 7.0°C (45°F) [RH = 30%]
Pressure (altimeter): 29.79 inches Hg (1009.0 mb)
Winds: from the NW (310 degrees) at 3 MPH (3 knots; 1.5 m/s)
Visibility: 2.80 miles (4.51 km)
Ceiling: at least 12,000 feet AGL
Clouds: sky clear below 12,000 feet AGL
Weather: HZ  (haze)

METAR text: VIAR 191100Z VRB02KT 4000 HZ FEW100 27/07 Q1009 NOSIG
Conditions at: VIAR (AMRITSAR , IN) observed 1100 UTC 19 March 2019
Temperature: 27.0°C (81°F)
Dewpoint: 7.0°C (45°F) [RH = 28%]
Pressure (altimeter): 29.79 inches Hg (1009.0 mb)
Winds: variable direction winds at 2 MPH (2 knots; 1.0 m/s)
Visibility: 2.49 miles (4.01 km)
Ceiling: at least 12,000 feet AGL
Clouds: few clouds at 10000 feet AGL
Weather: HZ  (haze)

METAR text: VIAR 191030Z 26003KT 4000 HZ FEW100 27/08 Q1009 NOSIG
Conditions at: VIAR (AMRITSAR , IN) observed 1030 UTC 19 March 2019
Temperature: 27.0°C (81°F)
Dewpoint: 8.0°C (46°F) [RH = 30%]
Pressure (altimeter): 29.79 inches Hg (1009.0 mb)
Winds: from the W (260 degrees) at 3 MPH (3 knots; 1.5 m/s)
Visibility: 2.49 miles (4.01 km)
Ceiling: at least 12,000 feet AGL
Clouds: few clouds at 10000 feet AGL
Weather: HZ  (haze)

METAR text: VIAR 191000Z VRB02KT 3500 HZ SCT100 27/08 Q1009 NOSIG
Conditions at: VIAR (AMRITSAR , IN) observed 1000 UTC 19 March 2019
Temperature: 27.0°C (81°F)
Dewpoint: 8.0°C (46°F) [RH = 30%]
Pressure (altimeter): 29.79 inches Hg (1009.0 mb)
Winds: variable direction winds at 2 MPH (2 knots; 1.0 m/s)
Visibility: 2.17 miles (3.49 km)
Ceiling: at least 12,000 feet AGL
Clouds: scattered clouds at 10000 feet AGL
Weather: HZ  (haze)

METAR text: VIAR 190930Z 25005KT 3500 HZ SCT100 27/08 Q1010 NOSIG
Conditions at: VIAR (AMRITSAR , IN) observed 0930 UTC 19 March 2019
Temperature: 27.0°C (81°F)
Dewpoint: 8.0°C (46°F) [RH = 30%]
Pressure (altimeter): 29.82 inches Hg (1010.0 mb)
Winds: from the WSW (250 degrees) at 6 MPH (5 knots; 2.6 m/s)
Visibility: 2.17 miles (3.49 km)
Ceiling: at least 12,000 feet AGL
Clouds: scattered clouds at 10000 feet AGL
Weather: HZ  (haze)

METAR text: VIAR 190900Z 00000KT 3500 HZ SCT100 27/08 Q1010 NOSIG
Conditions at: VIAR (AMRITSAR , IN) observed 0900 UTC 19 March 2019
Temperature: 27.0°C (81°F)
Dewpoint: 8.0°C (46°F) [RH = 30%]
Pressure (altimeter): 29.82 inches Hg (1010.0 mb)
Winds: calm
Visibility: 2.17 miles (3.49 km)
Ceiling: at least 12,000 feet AGL
Clouds: scattered clouds at 10000 feet AGL
Weather: HZ  (haze)

METAR text: VIAR 190830Z VRB02KT 3500 HZ FEW040 SCT100 27/09 Q1010 NOSIG
Conditions at: VIAR (AMRITSAR , IN) observed 0830 UTC 19 March 2019
Temperature: 27.0°C (81°F)
Dewpoint: 9.0°C (48°F) [RH = 32%]
Pressure (altimeter): 29.82 inches Hg (1010.0 mb)
Winds: variable direction winds at 2 MPH (2 knots; 1.0 m/s)
Visibility: 2.17 miles (3.49 km)
Ceiling: at least 12,000 feet AGL
Clouds: few clouds at 4000 feet AGL
scattered clouds at 10000 feet AGL
Weather: HZ  (haze)

METAR text: VIAR 190730Z 00000KT 3000 HZ FEW040 SCT100 27/09 Q1011 NOSIG
Conditions at: VIAR (AMRITSAR , IN) observed 0730 UTC 19 March 2019
Temperature: 27.0°C (81°F)
Dewpoint: 9.0°C (48°F) [RH = 32%]
Pressure (altimeter): 29.85 inches Hg (1011.0 mb)
Winds: calm
Visibility: 1.86 miles (2.99 km)
Ceiling: at least 12,000 feet AGL
Clouds: few clouds at 4000 feet AGL
scattered clouds at 10000 feet AGL
Weather: HZ  (haze)

METAR text: VIAR 190700Z 00000KT 3000 HZ FEW040 SCT100 26/10 Q1011 NOSIG
Conditions at: VIAR (AMRITSAR , IN) observed 0700 UTC 19 March 2019
Temperature: 26.0°C (79°F)
Dewpoint: 10.0°C (50°F) [RH = 37%]
Pressure (altimeter): 29.85 inches Hg (1011.0 mb)
Winds: calm
Visibility: 1.86 miles (2.99 km)
Ceiling: at least 12,000 feet AGL
Clouds: few clouds at 4000 feet AGL
scattered clouds at 10000 feet AGL
Weather: HZ  (haze)

METAR text: VIAR 190630Z VRB02KT 3000 HZ FEW040 SCT100 26/11 Q1012 NOSIG
Conditions at: VIAR (AMRITSAR , IN) observed 0630 UTC 19 March 2019
Temperature: 26.0°C (79°F)
Dewpoint: 11.0°C (52°F) [RH = 39%]
Pressure (altimeter): 29.88 inches Hg (1012.0 mb)
Winds: variable direction winds at 2 MPH (2 knots; 1.0 m/s)
Visibility: 1.86 miles (2.99 km)
Ceiling: at least 12,000 feet AGL
Clouds: few clouds at 4000 feet AGL
scattered clouds at 10000 feet AGL
Weather: HZ  (haze)

METAR text: VIAR 190600Z VRB02KT 3000 HZ FEW040 SCT100 25/10 Q1012 NOSIG
Conditions at: VIAR (AMRITSAR , IN) observed 0600 UTC 19 March 2019
Temperature: 25.0°C (77°F)
Dewpoint: 10.0°C (50°F) [RH = 39%]
Pressure (altimeter): 29.88 inches Hg (1012.0 mb)
Winds: variable direction winds at 2 MPH (2 knots; 1.0 m/s)
Visibility: 1.86 miles (2.99 km)
Ceiling: at least 12,000 feet AGL
Clouds: few clouds at 4000 feet AGL
scattered clouds at 10000 feet AGL
Weather: HZ  (haze)

METAR text: VIAR 190530Z VRB02KT 3000 HZ FEW040 SCT100 24/11 Q1012 NOSIG
Conditions at: VIAR (AMRITSAR , IN) observed 0530 UTC 19 March 2019
Temperature: 24.0°C (75°F)
Dewpoint: 11.0°C (52°F) [RH = 44%]
Pressure (altimeter): 29.88 inches Hg (1012.0 mb)
Winds: variable direction winds at 2 MPH (2 knots; 1.0 m/s)
Visibility: 1.86 miles (2.99 km)
Ceiling: at least 12,000 feet AGL
Clouds: few clouds at 4000 feet AGL
scattered clouds at 10000 feet AGL
Weather: HZ  (haze)

METAR text: VIAR 190500Z VRB02KT 2000 HZ FEW040 SCT100 24/13 Q1012 NOSIG
Conditions at: VIAR (AMRITSAR , IN) observed 0500 UTC 19 March 2019
Temperature: 24.0°C (75°F)
Dewpoint: 13.0°C (55°F) [RH = 50%]
Pressure (altimeter): 29.88 inches Hg (1012.0 mb)
Winds: variable direction winds at 2 MPH (2 knots; 1.0 m/s)
Visibility: 1.24 miles (2.00 km)
Ceiling: at least 12,000 feet AGL
Clouds: few clouds at 4000 feet AGL
scattered clouds at 10000 feet AGL
Weather: HZ  (haze)

METAR text: VIAR 190430Z VRB02KT 2000 HZ FEW040 SCT100 24/14 Q1012 NOSIG
Conditions at: VIAR (AMRITSAR , IN) observed 0430 UTC 19 March 2019
Temperature: 24.0°C (75°F)
Dewpoint: 14.0°C (57°F) [RH = 54%]
Pressure (altimeter): 29.88 inches Hg (1012.0 mb)
Winds: variable direction winds at 2 MPH (2 knots; 1.0 m/s)
Visibility: 1.24 miles (2.00 km)
Ceiling: at least 12,000 feet AGL
Clouds: few clouds at 4000 feet AGL
scattered clouds at 10000 feet AGL
Weather: HZ  (haze)

METAR text: VIAR 190400Z VRB02KT 2000 HZ FEW040 SCT100 21/14 Q1012 NOSIG
Conditions at: VIAR (AMRITSAR , IN) observed 0400 UTC 19 March 2019
Temperature: 21.0°C (70°F)
Dewpoint: 14.0°C (57°F) [RH = 64%]
Pressure (altimeter): 29.88 inches Hg (1012.0 mb)
Winds: variable direction winds at 2 MPH (2 knots; 1.0 m/s)
Visibility: 1.24 miles (2.00 km)
Ceiling: at least 12,000 feet AGL
Clouds: few clouds at 4000 feet AGL
scattered clouds at 10000 feet AGL
Weather: HZ  (haze)

Forecast for: VIAR (AMRITSAR , IN)
Text: TAF VIAR 201400Z 2015/2024 VRB02KT 4000 HZ FEW100
Forecast period: 1500 to 1800 UTC 20 March 2019
Forecast type: FROM: standard forecast or significant change
Winds: variable direction winds at 2 MPH (2 knots; 1.0 m/s)
Visibility: 2.49 miles (4.01 km)
Ceiling: at least 12,000 feet AGL
Clouds: few clouds at 10000 feet AGL
Weather: HZ  (haze)
Text: BECMG 2018/2020 00000KT 3000 BR
Forecast period: 1800 UTC 20 March 2019 to 0000 UTC 21 March 2019
Forecast type: BECOMING: Conditions expected to become as follows by 2000 UTC 20 March 2019
Winds: calm
Visibility: 1.86 miles (2.99 km)
Ceiling: at least 12,000 feet AGL
Clouds: few clouds at 10000 feet AGL
Weather: BR  (mist)